sensor_id;sensor_type;location;lat;lon;timestamp;P1;durP1;ratioP1;P2;durP2;ratioP2
29538;SDS011;16482;51.046;4.498;2023-05-10T00:00:44;4.05;;;3.65;;
29538;SDS011;16482;51.046;4.498;2023-05-10T00:03:09;4.10;;;3.53;;
29538;SDS011;16482;51.046;4.498;2023-05-10T00:05:38;4.13;;;3.03;;
29538;SDS011;16482;51.046;4.498;2023-05-10T00:08:10;3.85;;;3.35;;
29538;SDS011;16482;51.046;4.498;2023-05-10T00:10:38;4.60;;;3.92;;
29538;SDS011;16482;51.046;4.498;2023-05-10T00:13:10;4.00;;;3.55;;
29538;SDS011;16482;51.046;4.498;2023-05-10T00:15:38;5.18;;;3.60;;
29538;SDS011;16482;51.046;4.498;2023-05-10T00:18:07;4.68;;;3.70;;
29538;SDS011;16482;51.046;4.498;2023-05-10T00:20:40;4.25;;;3.22;;
29538;SDS011;16482;51.046;4.498;2023-05-10T00:23:14;4.50;;;3.47;;
29538;SDS011;16482;51.046;4.498;2023-05-10T00:25:40;4.07;;;3.58;;
29538;SDS011;16482;51.046;4.498;2023-05-10T00:28:08;4.07;;;3.40;;
29538;SDS011;16482;51.046;4.498;2023-05-10T00:30:34;4.22;;;3.55;;
29538;SDS011;16482;51.046;4.498;2023-05-10T00:33:09;4.95;;;3.58;;
29538;SDS011;16482;51.046;4.498;2023-05-10T00:35:38;4.35;;;3.60;;
29538;SDS011;16482;51.046;4.498;2023-05-10T00:38:07;4.05;;;3.65;;
29538;SDS011;16482;51.046;4.498;2023-05-10T00:40:38;5.78;;;3.70;;
29538;SDS011;16482;51.046;4.498;2023-05-10T00:43:11;5.43;;;3.92;;
29538;SDS011;16482;51.046;4.498;2023-05-10T00:45:37;4.22;;;3.40;;
29538;SDS011;16482;51.046;4.498;2023-05-10T00:48:13;4.80;;;3.55;;
29538;SDS011;16482;51.046;4.498;2023-05-10T00:50:39;5.03;;;3.85;;
29538;SDS011;16482;51.046;4.498;2023-05-10T00:53:12;4.80;;;3.40;;
29538;SDS011;16482;51.046;4.498;2023-05-10T00:55:41;3.70;;;3.40;;
29538;SDS011;16482;51.046;4.498;2023-05-10T00:58:07;4.13;;;3.45;;
29538;SDS011;16482;51.046;4.498;2023-05-10T01:00:41;4.35;;;3.85;;
29538;SDS011;16482;51.046;4.498;2023-05-10T01:03:11;4.40;;;3.60;;
29538;SDS011;16482;51.046;4.498;2023-05-10T01:05:39;5.55;;;4.00;;
29538;SDS011;16482;51.046;4.498;2023-05-10T01:08:10;4.45;;;3.72;;
29538;SDS011;16482;51.046;4.498;2023-05-10T01:10:45;4.30;;;3.90;;
29538;SDS011;16482;51.046;4.498;2023-05-10T01:13:13;4.43;;;3.58;;
29538;SDS011;16482;51.046;4.498;2023-05-10T01:15:51;5.78;;;3.78;;
29538;SDS011;16482;51.046;4.498;2023-05-10T01:18:18;5.13;;;4.00;;
29538;SDS011;16482;51.046;4.498;2023-05-10T01:20:47;4.82;;;3.97;;
29538;SDS011;16482;51.046;4.498;2023-05-10T01:26:13;5.10;;;3.70;;
29538;SDS011;16482;51.046;4.498;2023-05-10T01:29:09;5.10;;;4.20;;
29538;SDS011;16482;51.046;4.498;2023-05-10T01:34:27;4.20;;;3.45;;
29538;SDS011;16482;51.046;4.498;2023-05-10T01:37:23;5.28;;;3.78;;
29538;SDS011;16482;51.046;4.498;2023-05-10T01:40:04;5.55;;;3.58;;
29538;SDS011;16482;51.046;4.498;2023-05-10T01:42:42;4.28;;;3.58;;
29538;SDS011;16482;51.046;4.498;2023-05-10T01:45:22;6.20;;;3.70;;
29538;SDS011;16482;51.046;4.498;2023-05-10T01:50:24;4.57;;;3.72;;
29538;SDS011;16482;51.046;4.498;2023-05-10T01:52:54;5.55;;;3.97;;
29538;SDS011;16482;51.046;4.498;2023-05-10T01:55:23;5.75;;;4.00;;
29538;SDS011;16482;51.046;4.498;2023-05-10T01:57:54;5.45;;;3.80;;
29538;SDS011;16482;51.046;4.498;2023-05-10T02:00:43;5.75;;;3.90;;
29538;SDS011;16482;51.046;4.498;2023-05-10T02:03:11;5.63;;;3.65;;
29538;SDS011;16482;51.046;4.498;2023-05-10T02:05:38;7.60;;;4.22;;
29538;SDS011;16482;51.046;4.498;2023-05-10T02:08:09;4.50;;;3.80;;
29538;SDS011;16482;51.046;4.498;2023-05-10T02:10:38;5.03;;;4.00;;
29538;SDS011;16482;51.046;4.498;2023-05-10T02:13:05;4.75;;;3.92;;
29538;SDS011;16482;51.046;4.498;2023-05-10T02:15:42;6.18;;;3.97;;
29538;SDS011;16482;51.046;4.498;2023-05-10T02:18:10;5.53;;;4.28;;
29538;SDS011;16482;51.046;4.498;2023-05-10T02:20:40;6.57;;;4.28;;
29538;SDS011;16482;51.046;4.498;2023-05-10T02:23:10;4.68;;;3.90;;
29538;SDS011;16482;51.046;4.498;2023-05-10T02:25:40;6.78;;;4.18;;
29538;SDS011;16482;51.046;4.498;2023-05-10T02:28:10;4.03;;;3.28;;
29538;SDS011;16482;51.046;4.498;2023-05-10T02:30:41;4.55;;;4.10;;
29538;SDS011;16482;51.046;4.498;2023-05-10T02:33:10;5.50;;;4.45;;
29538;SDS011;16482;51.046;4.498;2023-05-10T02:35:44;4.97;;;4.10;;
29538;SDS011;16482;51.046;4.498;2023-05-10T02:38:12;5.35;;;4.38;;
29538;SDS011;16482;51.046;4.498;2023-05-10T02:40:40;5.43;;;4.30;;
29538;SDS011;16482;51.046;4.498;2023-05-10T02:43:12;5.13;;;4.38;;
29538;SDS011;16482;51.046;4.498;2023-05-10T02:45:41;6.50;;;4.03;;
29538;SDS011;16482;51.046;4.498;2023-05-10T02:48:11;5.30;;;4.20;;
29538;SDS011;16482;51.046;4.498;2023-05-10T02:50:40;4.53;;;4.13;;
29538;SDS011;16482;51.046;4.498;2023-05-10T02:53:18;5.38;;;4.45;;
29538;SDS011;16482;51.046;4.498;2023-05-10T02:55:50;5.00;;;4.03;;
29538;SDS011;16482;51.046;4.498;2023-05-10T02:58:19;5.30;;;4.57;;
29538;SDS011;16482;51.046;4.498;2023-05-10T03:00:46;6.03;;;4.35;;
29538;SDS011;16482;51.046;4.498;2023-05-10T03:03:12;6.07;;;4.32;;
29538;SDS011;16482;51.046;4.498;2023-05-10T03:05:38;5.07;;;4.38;;
29538;SDS011;16482;51.046;4.498;2023-05-10T03:08:10;6.25;;;4.80;;
29538;SDS011;16482;51.046;4.498;2023-05-10T03:10:45;5.03;;;4.53;;
29538;SDS011;16482;51.046;4.498;2023-05-10T03:13:28;4.75;;;4.30;;
29538;SDS011;16482;51.046;4.498;2023-05-10T03:16:14;5.32;;;4.68;;
29538;SDS011;16482;51.046;4.498;2023-05-10T03:21:50;5.20;;;4.68;;
29538;SDS011;16482;51.046;4.498;2023-05-10T03:24:20;5.05;;;4.55;;
29538;SDS011;16482;51.046;4.498;2023-05-10T03:26:47;6.03;;;4.75;;
29538;SDS011;16482;51.046;4.498;2023-05-10T03:29:15;6.88;;;5.45;;
29538;SDS011;16482;51.046;4.498;2023-05-10T03:31:42;5.63;;;5.00;;
29538;SDS011;16482;51.046;4.498;2023-05-10T03:34:08;5.93;;;5.00;;
29538;SDS011;16482;51.046;4.498;2023-05-10T03:36:34;5.22;;;4.72;;
29538;SDS011;16482;51.046;4.498;2023-05-10T03:39:00;6.32;;;5.10;;
29538;SDS011;16482;51.046;4.498;2023-05-10T03:41:29;6.10;;;5.00;;
29538;SDS011;16482;51.046;4.498;2023-05-10T03:44:00;6.07;;;5.15;;
29538;SDS011;16482;51.046;4.498;2023-05-10T03:46:29;5.75;;;5.10;;
29538;SDS011;16482;51.046;4.498;2023-05-10T03:49:04;6.60;;;5.47;;
29538;SDS011;16482;51.046;4.498;2023-05-10T03:51:30;5.20;;;4.70;;
29538;SDS011;16482;51.046;4.498;2023-05-10T03:53:59;5.93;;;5.32;;
29538;SDS011;16482;51.046;4.498;2023-05-10T03:56:27;6.55;;;5.85;;
29538;SDS011;16482;51.046;4.498;2023-05-10T03:59:10;6.40;;;5.80;;
29538;SDS011;16482;51.046;4.498;2023-05-10T04:01:36;6.15;;;5.55;;
29538;SDS011;16482;51.046;4.498;2023-05-10T04:04:02;7.55;;;5.55;;
29538;SDS011;16482;51.046;4.498;2023-05-10T04:06:30;7.60;;;5.55;;
29538;SDS011;16482;51.046;4.498;2023-05-10T04:09:05;6.50;;;5.68;;
29538;SDS011;16482;51.046;4.498;2023-05-10T04:11:31;6.95;;;6.03;;
29538;SDS011;16482;51.046;4.498;2023-05-10T04:14:05;6.40;;;5.75;;
29538;SDS011;16482;51.046;4.498;2023-05-10T04:16:31;7.07;;;5.75;;
29538;SDS011;16482;51.046;4.498;2023-05-10T04:19:00;6.93;;;5.90;;
29538;SDS011;16482;51.046;4.498;2023-05-10T04:21:33;6.47;;;5.80;;
29538;SDS011;16482;51.046;4.498;2023-05-10T04:23:59;6.93;;;6.03;;
29538;SDS011;16482;51.046;4.498;2023-05-10T04:26:32;7.05;;;6.35;;
29538;SDS011;16482;51.046;4.498;2023-05-10T04:29:01;6.90;;;6.20;;
29538;SDS011;16482;51.046;4.498;2023-05-10T04:31:27;7.13;;;6.40;;
29538;SDS011;16482;51.046;4.498;2023-05-10T04:34:00;7.80;;;6.90;;
29538;SDS011;16482;51.046;4.498;2023-05-10T04:36:29;8.38;;;7.18;;
29538;SDS011;16482;51.046;4.498;2023-05-10T04:39:00;9.82;;;8.18;;
29538;SDS011;16482;51.046;4.498;2023-05-10T04:41:30;11.38;;;7.40;;
29538;SDS011;16482;51.046;4.498;2023-05-10T04:43:59;9.15;;;8.25;;
29538;SDS011;16482;51.046;4.498;2023-05-10T04:46:31;8.90;;;8.00;;
29538;SDS011;16482;51.046;4.498;2023-05-10T04:49:00;8.95;;;7.82;;
29538;SDS011;16482;51.046;4.498;2023-05-10T04:51:35;10.65;;;8.65;;
29538;SDS011;16482;51.046;4.498;2023-05-10T04:54:00;12.38;;;8.85;;
29538;SDS011;16482;51.046;4.498;2023-05-10T04:56:29;10.38;;;9.27;;
29538;SDS011;16482;51.046;4.498;2023-05-10T04:58:58;9.95;;;8.95;;
29538;SDS011;16482;51.046;4.498;2023-05-10T05:01:29;10.80;;;9.13;;
29538;SDS011;16482;51.046;4.498;2023-05-10T05:04:00;12.32;;;10.52;;
29538;SDS011;16482;51.046;4.498;2023-05-10T05:06:29;11.30;;;9.57;;
29538;SDS011;16482;51.046;4.498;2023-05-10T05:08:55;12.45;;;10.90;;
29538;SDS011;16482;51.046;4.498;2023-05-10T05:11:31;12.15;;;10.85;;
29538;SDS011;16482;51.046;4.498;2023-05-10T05:14:00;11.82;;;10.32;;
29538;SDS011;16482;51.046;4.498;2023-05-10T05:16:33;12.75;;;9.90;;
29538;SDS011;16482;51.046;4.498;2023-05-10T05:18:59;12.55;;;9.93;;
29538;SDS011;16482;51.046;4.498;2023-05-10T05:21:31;12.10;;;10.18;;
29538;SDS011;16482;51.046;4.498;2023-05-10T05:24:00;14.40;;;10.52;;
29538;SDS011;16482;51.046;4.498;2023-05-10T05:26:34;12.05;;;10.85;;
29538;SDS011;16482;51.046;4.498;2023-05-10T05:29:00;12.80;;;11.00;;
29538;SDS011;16482;51.046;4.498;2023-05-10T05:31:34;11.18;;;9.98;;
29538;SDS011;16482;51.046;4.498;2023-05-10T05:34:00;11.23;;;10.02;;
29538;SDS011;16482;51.046;4.498;2023-05-10T05:36:35;12.20;;;10.95;;
29538;SDS011;16482;51.046;4.498;2023-05-10T05:39:03;11.18;;;9.80;;
29538;SDS011;16482;51.046;4.498;2023-05-10T05:41:31;11.75;;;10.15;;
29538;SDS011;16482;51.046;4.498;2023-05-10T05:44:00;11.38;;;10.23;;
29538;SDS011;16482;51.046;4.498;2023-05-10T05:46:28;12.32;;;10.68;;
29538;SDS011;16482;51.046;4.498;2023-05-10T05:49:00;11.85;;;10.43;;
29538;SDS011;16482;51.046;4.498;2023-05-10T05:51:29;11.38;;;10.18;;
29538;SDS011;16482;51.046;4.498;2023-05-10T05:54:05;11.00;;;9.90;;
29538;SDS011;16482;51.046;4.498;2023-05-10T05:56:31;12.50;;;10.52;;
29538;SDS011;16482;51.046;4.498;2023-05-10T05:58:59;11.88;;;10.68;;
29538;SDS011;16482;51.046;4.498;2023-05-10T06:01:33;11.70;;;10.40;;
29538;SDS011;16482;51.046;4.498;2023-05-10T06:04:01;13.32;;;11.10;;
29538;SDS011;16482;51.046;4.498;2023-05-10T06:06:35;11.55;;;10.35;;
29538;SDS011;16482;51.046;4.498;2023-05-10T06:09:03;11.93;;;10.25;;
29538;SDS011;16482;51.046;4.498;2023-05-10T06:11:31;12.52;;;10.95;;
29538;SDS011;16482;51.046;4.498;2023-05-10T06:14:00;12.10;;;10.80;;
29538;SDS011;16482;51.046;4.498;2023-05-10T06:16:35;11.60;;;10.40;;
29538;SDS011;16482;51.046;4.498;2023-05-10T06:19:01;12.43;;;10.93;;
29538;SDS011;16482;51.046;4.498;2023-05-10T06:21:30;13.10;;;11.32;;
29538;SDS011;16482;51.046;4.498;2023-05-10T06:24:05;13.18;;;11.27;;
29538;SDS011;16482;51.046;4.498;2023-05-10T06:26:32;11.90;;;10.70;;
29538;SDS011;16482;51.046;4.498;2023-05-10T06:29:01;12.98;;;11.23;;
29538;SDS011;16482;51.046;4.498;2023-05-10T06:31:30;14.05;;;11.93;;
29538;SDS011;16482;51.046;4.498;2023-05-10T06:34:03;12.57;;;10.77;;
29538;SDS011;16482;51.046;4.498;2023-05-10T06:36:29;12.30;;;11.00;;
29538;SDS011;16482;51.046;4.498;2023-05-10T06:39:00;12.13;;;10.93;;
29538;SDS011;16482;51.046;4.498;2023-05-10T06:41:29;13.70;;;11.70;;
29538;SDS011;16482;51.046;4.498;2023-05-10T06:44:03;12.52;;;11.13;;
29538;SDS011;16482;51.046;4.498;2023-05-10T06:46:31;12.55;;;11.25;;
29538;SDS011;16482;51.046;4.498;2023-05-10T06:49:00;13.13;;;11.73;;
29538;SDS011;16482;51.046;4.498;2023-05-10T06:51:33;13.48;;;11.60;;
29538;SDS011;16482;51.046;4.498;2023-05-10T06:53:59;14.43;;;11.30;;
29538;SDS011;16482;51.046;4.498;2023-05-10T06:56:33;12.85;;;11.43;;
29538;SDS011;16482;51.046;4.498;2023-05-10T06:59:02;13.45;;;11.77;;
29538;SDS011;16482;51.046;4.498;2023-05-10T07:01:30;14.05;;;12.32;;
29538;SDS011;16482;51.046;4.498;2023-05-10T07:04:05;15.65;;;11.80;;
29538;SDS011;16482;51.046;4.498;2023-05-10T07:06:32;13.32;;;11.93;;
29538;SDS011;16482;51.046;4.498;2023-05-10T07:08:58;14.30;;;12.07;;
29538;SDS011;16482;51.046;4.498;2023-05-10T07:11:32;14.35;;;12.30;;
29538;SDS011;16482;51.046;4.498;2023-05-10T07:14:01;14.68;;;12.38;;
29538;SDS011;16482;51.046;4.498;2023-05-10T07:16:29;14.07;;;12.63;;
29538;SDS011;16482;51.046;4.498;2023-05-10T07:19:04;14.52;;;12.27;;
29538;SDS011;16482;51.046;4.498;2023-05-10T07:21:30;16.05;;;13.27;;
29538;SDS011;16482;51.046;4.498;2023-05-10T07:23:59;14.13;;;12.27;;
29538;SDS011;16482;51.046;4.498;2023-05-10T07:26:35;15.40;;;12.57;;
29538;SDS011;16482;51.046;4.498;2023-05-10T07:29:00;16.20;;;13.27;;
29538;SDS011;16482;51.046;4.498;2023-05-10T07:31:30;13.75;;;11.52;;
29538;SDS011;16482;51.046;4.498;2023-05-10T07:34:05;14.73;;;11.18;;
29538;SDS011;16482;51.046;4.498;2023-05-10T07:36:31;14.68;;;12.65;;
29538;SDS011;16482;51.046;4.498;2023-05-10T07:39:06;14.63;;;11.65;;
29538;SDS011;16482;51.046;4.498;2023-05-10T07:41:32;16.50;;;12.80;;
29538;SDS011;16482;51.046;4.498;2023-05-10T07:44:01;14.30;;;12.80;;
29538;SDS011;16482;51.046;4.498;2023-05-10T07:46:30;14.23;;;11.98;;
29538;SDS011;16482;51.046;4.498;2023-05-10T07:48:59;14.82;;;12.32;;
29538;SDS011;16482;51.046;4.498;2023-05-10T07:51:29;13.75;;;12.18;;
29538;SDS011;16482;51.046;4.498;2023-05-10T07:54:04;17.55;;;12.40;;
29538;SDS011;16482;51.046;4.498;2023-05-10T07:56:30;12.90;;;11.60;;
29538;SDS011;16482;51.046;4.498;2023-05-10T07:59:00;16.67;;;12.10;;
29538;SDS011;16482;51.046;4.498;2023-05-10T08:01:32;14.45;;;12.05;;
29538;SDS011;16482;51.046;4.498;2023-05-10T08:04:02;14.05;;;12.40;;
29538;SDS011;16482;51.046;4.498;2023-05-10T08:06:30;13.55;;;11.77;;
29538;SDS011;16482;51.046;4.498;2023-05-10T08:09:01;14.90;;;12.68;;
29538;SDS011;16482;51.046;4.498;2023-05-10T08:11:29;16.58;;;12.23;;
29538;SDS011;16482;51.046;4.498;2023-05-10T08:14:03;14.60;;;12.13;;
29538;SDS011;16482;51.046;4.498;2023-05-10T08:16:31;14.98;;;12.85;;
29538;SDS011;16482;51.046;4.498;2023-05-10T08:19:05;13.88;;;12.02;;
29538;SDS011;16482;51.046;4.498;2023-05-10T08:21:30;14.35;;;12.38;;
29538;SDS011;16482;51.046;4.498;2023-05-10T08:24:05;14.80;;;11.82;;
29538;SDS011;16482;51.046;4.498;2023-05-10T08:26:32;13.88;;;12.00;;
29538;SDS011;16482;51.046;4.498;2023-05-10T08:29:01;17.00;;;12.20;;
29538;SDS011;16482;51.046;4.498;2023-05-10T08:31:30;15.63;;;13.10;;
29538;SDS011;16482;51.046;4.498;2023-05-10T08:34:05;15.25;;;12.23;;
29538;SDS011;16482;51.046;4.498;2023-05-10T08:36:31;16.60;;;12.57;;
29538;SDS011;16482;51.046;4.498;2023-05-10T08:39:06;14.10;;;12.38;;
29538;SDS011;16482;51.046;4.498;2023-05-10T08:41:33;13.68;;;11.68;;
29538;SDS011;16482;51.046;4.498;2023-05-10T08:44:00;15.20;;;11.85;;
29538;SDS011;16482;51.046;4.498;2023-05-10T08:46:31;14.27;;;11.57;;
29538;SDS011;16482;51.046;4.498;2023-05-10T08:49:03;16.77;;;12.73;;
29538;SDS011;16482;51.046;4.498;2023-05-10T08:51:32;14.18;;;11.65;;
29538;SDS011;16482;51.046;4.498;2023-05-10T08:54:02;15.73;;;12.77;;
29538;SDS011;16482;51.046;4.498;2023-05-10T08:56:31;15.70;;;12.63;;
29538;SDS011;16482;51.046;4.498;2023-05-10T08:59:00;16.08;;;11.68;;
29538;SDS011;16482;51.046;4.498;2023-05-10T09:01:35;14.80;;;11.05;;
29538;SDS011;16482;51.046;4.498;2023-05-10T09:04:02;15.73;;;11.35;;
29538;SDS011;16482;51.046;4.498;2023-05-10T09:06:29;16.33;;;12.35;;
29538;SDS011;16482;51.046;4.498;2023-05-10T09:09:02;12.98;;;10.95;;
29538;SDS011;16482;51.046;4.498;2023-05-10T09:11:31;13.10;;;11.18;;
29538;SDS011;16482;51.046;4.498;2023-05-10T09:14:00;15.95;;;10.85;;
29538;SDS011;16482;51.046;4.498;2023-05-10T09:16:29;14.27;;;10.70;;
29538;SDS011;16482;51.046;4.498;2023-05-10T09:19:02;13.30;;;10.45;;
29538;SDS011;16482;51.046;4.498;2023-05-10T09:21:31;14.35;;;11.00;;
29538;SDS011;16482;51.046;4.498;2023-05-10T09:24:02;15.48;;;10.82;;
29538;SDS011;16482;51.046;4.498;2023-05-10T09:26:29;12.40;;;10.27;;
29538;SDS011;16482;51.046;4.498;2023-05-10T09:29:04;11.88;;;10.52;;
29538;SDS011;16482;51.046;4.498;2023-05-10T09:31:44;13.73;;;10.45;;
29538;SDS011;16482;51.046;4.498;2023-05-10T09:34:19;12.52;;;10.15;;
29538;SDS011;16482;51.046;4.498;2023-05-10T09:36:53;12.30;;;9.68;;
29538;SDS011;16482;51.046;4.498;2023-05-10T09:39:29;11.77;;;9.88;;
29538;SDS011;16482;51.046;4.498;2023-05-10T09:41:57;12.10;;;9.90;;
29538;SDS011;16482;51.046;4.498;2023-05-10T09:44:25;11.00;;;9.73;;
29538;SDS011;16482;51.046;4.498;2023-05-10T09:46:51;13.35;;;9.73;;
29538;SDS011;16482;51.046;4.498;2023-05-10T09:49:18;12.38;;;9.35;;
29538;SDS011;16482;51.046;4.498;2023-05-10T09:51:45;11.57;;;9.82;;
29538;SDS011;16482;51.046;4.498;2023-05-10T09:54:15;11.70;;;9.60;;
29538;SDS011;16482;51.046;4.498;2023-05-10T09:56:41;11.70;;;10.02;;
29538;SDS011;16482;51.046;4.498;2023-05-10T09:59:09;10.95;;;9.52;;
29538;SDS011;16482;51.046;4.498;2023-05-10T10:01:37;19.15;;;9.90;;
29538;SDS011;16482;51.046;4.498;2023-05-10T10:04:04;13.73;;;9.60;;
29538;SDS011;16482;51.046;4.498;2023-05-10T10:06:38;11.13;;;8.75;;
29538;SDS011;16482;51.046;4.498;2023-05-10T10:09:05;11.30;;;8.93;;
29538;SDS011;16482;51.046;4.498;2023-05-10T10:11:34;10.15;;;8.85;;
29538;SDS011;16482;51.046;4.498;2023-05-10T10:14:01;11.95;;;8.88;;
29538;SDS011;16482;51.046;4.498;2023-05-10T10:16:31;12.43;;;9.48;;
29538;SDS011;16482;51.046;4.498;2023-05-10T10:19:05;9.35;;;8.30;;
29538;SDS011;16482;51.046;4.498;2023-05-10T10:21:31;10.97;;;8.70;;
29538;SDS011;16482;51.046;4.498;2023-05-10T10:24:00;11.43;;;8.60;;
29538;SDS011;16482;51.046;4.498;2023-05-10T10:26:29;11.75;;;8.90;;
29538;SDS011;16482;51.046;4.498;2023-05-10T10:32:03;10.52;;;8.35;;
29538;SDS011;16482;51.046;4.498;2023-05-10T10:34:38;11.23;;;8.98;;
29538;SDS011;16482;51.046;4.498;2023-05-10T10:37:05;11.82;;;8.73;;
29538;SDS011;16482;51.046;4.498;2023-05-10T10:39:31;11.88;;;8.63;;
29538;SDS011;16482;51.046;4.498;2023-05-10T10:41:58;13.70;;;8.65;;
29538;SDS011;16482;51.046;4.498;2023-05-10T10:44:24;12.02;;;8.85;;
29538;SDS011;16482;51.046;4.498;2023-05-10T11:05:43;11.27;;;8.20;;
29538;SDS011;16482;51.046;4.498;2023-05-10T11:10:50;9.20;;;7.68;;
29538;SDS011;16482;51.046;4.498;2023-05-10T11:13:41;12.80;;;8.20;;
29538;SDS011;16482;51.046;4.498;2023-05-10T11:16:10;9.07;;;7.90;;
29538;SDS011;16482;51.046;4.498;2023-05-10T11:18:37;9.07;;;7.78;;
29538;SDS011;16482;51.046;4.498;2023-05-10T11:21:03;10.02;;;7.70;;
29538;SDS011;16482;51.046;4.498;2023-05-10T11:23:32;10.30;;;6.97;;
29538;SDS011;16482;51.046;4.498;2023-05-10T11:26:12;10.07;;;7.68;;
29538;SDS011;16482;51.046;4.498;2023-05-10T11:28:42;9.55;;;7.80;;
29538;SDS011;16482;51.046;4.498;2023-05-10T11:31:09;10.07;;;8.40;;
29538;SDS011;16482;51.046;4.498;2023-05-10T11:33:47;10.60;;;8.23;;
29538;SDS011;16482;51.046;4.498;2023-05-10T11:36:18;9.00;;;7.50;;
29538;SDS011;16482;51.046;4.498;2023-05-10T11:39:05;10.43;;;8.13;;
29538;SDS011;16482;51.046;4.498;2023-05-10T11:41:31;9.98;;;7.70;;
29538;SDS011;16482;51.046;4.498;2023-05-10T11:44:00;8.80;;;7.78;;
29538;SDS011;16482;51.046;4.498;2023-05-10T11:46:32;8.50;;;7.60;;
29538;SDS011;16482;51.046;4.498;2023-05-10T11:49:07;10.65;;;8.18;;
29538;SDS011;16482;51.046;4.498;2023-05-10T11:51:34;8.68;;;7.40;;
29538;SDS011;16482;51.046;4.498;2023-05-10T11:54:08;9.85;;;7.95;;
29538;SDS011;16482;51.046;4.498;2023-05-10T11:56:39;8.93;;;7.93;;
29538;SDS011;16482;51.046;4.498;2023-05-10T11:59:05;8.95;;;7.85;;
29538;SDS011;16482;51.046;4.498;2023-05-10T12:01:33;8.75;;;7.95;;
29538;SDS011;16482;51.046;4.498;2023-05-10T12:04:01;8.48;;;7.60;;
29538;SDS011;16482;51.046;4.498;2023-05-10T12:06:31;9.77;;;7.22;;
29538;SDS011;16482;51.046;4.498;2023-05-10T12:09:04;7.57;;;6.85;;
29538;SDS011;16482;51.046;4.498;2023-05-10T12:11:32;9.80;;;7.57;;
29538;SDS011;16482;51.046;4.498;2023-05-10T12:14:04;7.78;;;6.72;;
29538;SDS011;16482;51.046;4.498;2023-05-10T12:16:32;8.27;;;7.38;;
29538;SDS011;16482;51.046;4.498;2023-05-10T12:19:01;7.57;;;6.88;;
29538;SDS011;16482;51.046;4.498;2023-05-10T12:21:36;8.38;;;7.20;;
29538;SDS011;16482;51.046;4.498;2023-05-10T12:24:04;7.85;;;6.90;;
29538;SDS011;16482;51.046;4.498;2023-05-10T12:26:35;8.60;;;7.40;;
29538;SDS011;16482;51.046;4.498;2023-05-10T12:34:35;8.27;;;7.32;;
29538;SDS011;16482;51.046;4.498;2023-05-10T12:37:02;7.50;;;6.70;;
29538;SDS011;16482;51.046;4.498;2023-05-10T12:39:42;7.00;;;6.20;;
29538;SDS011;16482;51.046;4.498;2023-05-10T12:42:09;7.15;;;6.45;;
29538;SDS011;16482;51.046;4.498;2023-05-10T12:44:36;6.95;;;6.25;;
29538;SDS011;16482;51.046;4.498;2023-05-10T12:47:02;8.80;;;7.28;;
29538;SDS011;16482;51.046;4.498;2023-05-10T12:49:27;7.97;;;6.80;;
29538;SDS011;16482;51.046;4.498;2023-05-10T12:51:53;9.57;;;6.50;;
29538;SDS011;16482;51.046;4.498;2023-05-10T12:54:19;8.10;;;7.30;;
29538;SDS011;16482;51.046;4.498;2023-05-10T12:56:45;7.57;;;6.80;;
29538;SDS011;16482;51.046;4.498;2023-05-10T12:59:11;6.88;;;6.18;;
29538;SDS011;16482;51.046;4.498;2023-05-10T13:01:37;8.55;;;6.50;;
29538;SDS011;16482;51.046;4.498;2023-05-10T13:04:02;7.93;;;6.78;;
29538;SDS011;16482;51.046;4.498;2023-05-10T13:06:37;7.93;;;6.95;;
29538;SDS011;16482;51.046;4.498;2023-05-10T13:09:03;7.05;;;6.07;;
29538;SDS011;16482;51.046;4.498;2023-05-10T13:11:38;6.88;;;6.15;;
29538;SDS011;16482;51.046;4.498;2023-05-10T13:14:04;7.88;;;7.05;;
29538;SDS011;16482;51.046;4.498;2023-05-10T13:16:33;7.45;;;6.75;;
29538;SDS011;16482;51.046;4.498;2023-05-10T13:19:06;7.15;;;6.45;;
29538;SDS011;16482;51.046;4.498;2023-05-10T13:21:32;7.25;;;6.55;;
29538;SDS011;16482;51.046;4.498;2023-05-10T13:24:06;7.03;;;6.32;;
29538;SDS011;16482;51.046;4.498;2023-05-10T13:26:32;6.90;;;6.20;;
29538;SDS011;16482;51.046;4.498;2023-05-10T13:29:07;7.72;;;6.90;;
29538;SDS011;16482;51.046;4.498;2023-05-10T13:31:34;8.55;;;6.63;;
29538;SDS011;16482;51.046;4.498;2023-05-10T13:34:07;8.38;;;6.35;;
29538;SDS011;16482;51.046;4.498;2023-05-10T13:36:35;7.50;;;6.47;;
29538;SDS011;16482;51.046;4.498;2023-05-10T13:39:03;8.40;;;6.65;;
29538;SDS011;16482;51.046;4.498;2023-05-10T13:41:37;8.70;;;7.13;;
29538;SDS011;16482;51.046;4.498;2023-05-10T13:44:03;7.10;;;6.32;;
29538;SDS011;16482;51.046;4.498;2023-05-10T13:46:32;8.95;;;6.50;;
29538;SDS011;16482;51.046;4.498;2023-05-10T13:49:08;6.68;;;5.97;;
29538;SDS011;16482;51.046;4.498;2023-05-10T13:51:34;6.85;;;6.20;;
29538;SDS011;16482;51.046;4.498;2023-05-10T13:54:03;7.15;;;6.45;;
29538;SDS011;16482;51.046;4.498;2023-05-10T13:56:38;8.68;;;6.35;;
29538;SDS011;16482;51.046;4.498;2023-05-10T13:59:04;6.85;;;6.15;;
29538;SDS011;16482;51.046;4.498;2023-05-10T14:01:32;6.55;;;5.85;;
29538;SDS011;16482;51.046;4.498;2023-05-10T14:04:03;7.53;;;6.28;;
29538;SDS011;16482;51.046;4.498;2023-05-10T14:06:38;7.28;;;6.20;;
29538;SDS011;16482;51.046;4.498;2023-05-10T14:09:04;7.47;;;6.55;;
29538;SDS011;16482;51.046;4.498;2023-05-10T14:11:30;9.10;;;6.13;;
29538;SDS011;16482;51.046;4.498;2023-05-10T14:14:06;7.20;;;6.40;;
29538;SDS011;16482;51.046;4.498;2023-05-10T14:16:35;9.00;;;6.03;;
29538;SDS011;16482;51.046;4.498;2023-05-10T14:19:01;8.43;;;6.53;;
29538;SDS011;16482;51.046;4.498;2023-05-10T14:21:35;7.05;;;6.35;;
29538;SDS011;16482;51.046;4.498;2023-05-10T14:24:03;7.38;;;6.10;;
29538;SDS011;16482;51.046;4.498;2023-05-10T14:26:33;6.85;;;5.82;;
29538;SDS011;16482;51.046;4.498;2023-05-10T14:29:02;6.88;;;6.18;;
29538;SDS011;16482;51.046;4.498;2023-05-10T14:31:30;9.02;;;6.70;;
29538;SDS011;16482;51.046;4.498;2023-05-10T14:34:06;8.73;;;6.72;;
29538;SDS011;16482;51.046;4.498;2023-05-10T14:36:32;7.25;;;6.55;;
29538;SDS011;16482;51.046;4.498;2023-05-10T14:39:01;8.68;;;6.82;;
29538;SDS011;16482;51.046;4.498;2023-05-10T14:41:35;7.68;;;6.70;;
29538;SDS011;16482;51.046;4.498;2023-05-10T14:44:03;7.30;;;6.35;;
29538;SDS011;16482;51.046;4.498;2023-05-10T14:46:32;6.90;;;6.20;;
29538;SDS011;16482;51.046;4.498;2023-05-10T14:49:03;7.38;;;6.68;;
29538;SDS011;16482;51.046;4.498;2023-05-10T14:51:37;8.93;;;6.93;;
29538;SDS011;16482;51.046;4.498;2023-05-10T14:54:05;7.95;;;7.07;;
29538;SDS011;16482;51.046;4.498;2023-05-10T14:56:33;7.30;;;6.50;;
29538;SDS011;16482;51.046;4.498;2023-05-10T14:59:07;7.03;;;6.32;;
29538;SDS011;16482;51.046;4.498;2023-05-10T15:01:36;9.93;;;6.43;;
29538;SDS011;16482;51.046;4.498;2023-05-10T15:04:05;8.98;;;6.90;;
29538;SDS011;16482;51.046;4.498;2023-05-10T15:06:34;7.97;;;6.97;;
29538;SDS011;16482;51.046;4.498;2023-05-10T15:09:02;8.35;;;6.88;;
29538;SDS011;16482;51.046;4.498;2023-05-10T15:11:31;8.30;;;6.70;;
29538;SDS011;16482;51.046;4.498;2023-05-10T15:14:03;7.93;;;6.60;;
29538;SDS011;16482;51.046;4.498;2023-05-10T15:16:38;7.95;;;6.95;;
29538;SDS011;16482;51.046;4.498;2023-05-10T15:19:04;7.70;;;7.00;;
29538;SDS011;16482;51.046;4.498;2023-05-10T15:21:38;8.15;;;7.05;;
29538;SDS011;16482;51.046;4.498;2023-05-10T15:24:07;7.35;;;6.65;;
29538;SDS011;16482;51.046;4.498;2023-05-10T15:26:33;7.43;;;6.68;;
29538;SDS011;16482;51.046;4.498;2023-05-10T15:29:07;6.88;;;6.28;;
29538;SDS011;16482;51.046;4.498;2023-05-10T15:31:36;8.55;;;7.05;;
29538;SDS011;16482;51.046;4.498;2023-05-10T15:34:04;9.45;;;6.55;;
29538;SDS011;16482;51.046;4.498;2023-05-10T15:36:33;6.80;;;6.20;;